Time;durP1;ratioP1;P1;durP2;ratioP2;P2;SDS_P1;SDS_P2;PMS_P1;PMS_P2;Temp;Humidity;BMP_temperature;BMP_pressure;BME280_temperature;BME280_humidity;BME280_pressure;Samples;Min_cycle;Max_cycle;Signal;HPM_P1;HPM_P2
2023/06/22 00:01:20;;;;;;;1.83;1.70;;;;;20.50;96086.00;;;;5035601;28;20568;-54
2023/06/22 00:03:49;;;;;;;1.23;1.20;;;;;20.50;96087.00;;;;5033887;28;20531;-55
2023/06/22 00:06:17;;;;;;;1.20;1.20;;;;;20.40;96095.00;;;;5035185;28;20264;-56
2023/06/22 00:08:44;;;;;;;1.02;1.02;;;;;20.30;96106.00;;;;5035131;28;20227;-54
2023/06/22 00:11:12;;;;;;;4.32;2.55;;;;;20.20;96103.00;;;;5035133;28;20204;-59
2023/06/22 00:13:40;;;;;;;1.45;1.35;;;;;20.20;96080.00;;;;5035444;28;20217;-58
2023/06/22 00:16:07;;;;;;;0.90;0.90;;;;;20.20;96091.00;;;;5035454;28;20243;-55
2023/06/22 00:18:35;;;;;;;1.95;1.63;;;;;20.10;96103.00;;;;5035185;28;20192;-54
2023/06/22 00:21:04;;;;;;;1.75;1.65;;;;;19.70;96113.00;;;;5035146;28;20197;-55
2023/06/22 00:23:34;;;;;;;2.40;1.30;;;;;19.80;96108.00;;;;5035078;28;20550;-54
2023/06/22 00:26:01;;;;;;;1.07;1.07;;;;;19.90;96103.00;;;;5034720;28;20702;-54
2023/06/22 00:28:29;;;;;;;1.13;1.08;;;;;20.00;96099.00;;;;5034764;28;20682;-54
2023/06/22 00:30:56;;;;;;;1.23;1.23;;;;;20.00;96081.00;;;;5035004;28;20189;-54
2023/06/22 00:33:24;;;;;;;1.25;1.25;;;;;20.10;96074.00;;;;5034613;28;20216;-54
2023/06/22 00:35:52;;;;;;;1.83;1.73;;;;;20.20;96135.00;;;;5034582;28;20684;-54
2023/06/22 00:38:21;;;;;;;1.50;1.40;;;;;19.40;96156.00;;;;5034587;28;20193;-54
2023/06/22 00:40:48;;;;;;;1.17;1.17;;;;;19.40;96147.00;;;;5034589;28;20722;-54
2023/06/22 00:43:16;;;;;;;0.80;0.80;;;;;19.50;96131.00;;;;5034472;28;20247;-55
2023/06/22 00:45:43;;;;;;;1.63;1.57;;;;;19.60;96147.00;;;;5034127;28;20220;-54
2023/06/22 00:48:12;;;;;;;2.13;1.93;;;;;19.70;96174.00;;;;5034619;28;20672;-56
2023/06/22 00:50:40;;;;;;;2.27;2.07;;;;;19.60;96185.00;;;;5034614;28;20656;-54
2023/06/22 00:53:09;;;;;;;1.40;1.33;;;;;19.60;96136.00;;;;5034440;28;20221;-55
2023/06/22 00:55:39;;;;;;;1.10;1.10;;;;;19.60;96130.00;;;;5034406;28;20236;-54
2023/06/22 00:58:10;;;;;;;1.53;1.43;;;;;19.70;96136.00;;;;5034390;28;20196;-54
2023/06/22 01:00:37;;;;;;;1.10;1.10;;;;;19.70;96137.00;;;;5034473;28;20617;-54
2023/06/22 01:03:08;;;;;;;3.97;1.80;;;;;19.70;96114.00;;;;5034088;28;20184;-54
2023/06/22 01:05:39;;;;;;;1.10;1.10;;;;;19.70;96111.00;;;;5034287;28;20632;-54
2023/06/22 01:08:30;;;;;;;1.93;1.80;;;;;19.70;96097.00;;;;5034074;28;20196;-54
2023/06/22 01:11:05;;;;;;;1.23;1.23;;;;;19.50;96106.00;;;;5034007;28;20185;-54
2023/06/22 01:13:38;;;;;;;2.20;1.20;;;;;19.60;96098.00;;;;5033923;28;20274;-54
2023/06/22 01:16:12;;;;;;;1.77;1.67;;;;;19.60;96088.00;;;;5034178;28;20575;-54
2023/06/22 01:18:43;;;;;;;1.40;1.40;;;;;19.50;96079.00;;;;5034127;28;20181;-54
2023/06/22 01:21:14;;;;;;;1.40;1.30;;;;;19.60;96083.00;;;;5033835;28;20192;-54
2023/06/22 01:23:58;;;;;;;2.40;2.20;;;;;19.60;96094.00;;;;5034026;28;20173;-54
2023/06/22 01:26:38;;;;;;;1.67;1.57;;;;;19.60;96092.00;;;;5034200;28;20216;-54
2023/06/22 01:29:11;;;;;;;1.67;1.43;;;;;19.60;96091.00;;;;5033955;28;20169;-54
2023/06/22 01:31:41;;;;;;;1.83;1.73;;;;;19.60;96081.00;;;;5033642;28;20181;-54
2023/06/22 01:34:10;;;;;;;1.40;1.37;;;;;19.60;96090.00;;;;5034279;28;20213;-54
2023/06/22 01:36:40;;;;;;;1.73;1.63;;;;;19.60;96090.00;;;;5033497;28;20215;-54
2023/06/22 01:39:08;;;;;;;1.03;1.03;;;;;19.60;96092.00;;;;5033474;28;20197;-54
2023/06/22 01:41:38;;;;;;;2.43;2.27;;;;;19.70;96084.00;;;;5033440;28;20201;-54
2023/06/22 01:44:08;;;;;;;2.20;1.07;;;;;19.70;96087.00;;;;5032498;28;20243;-54
2023/06/22 01:46:36;;;;;;;0.90;0.90;;;;;19.70;96095.00;;;;5053090;22;20232;-59
2023/06/22 01:49:04;;;;;;;2.07;1.90;;;;;19.80;96105.00;;;;5053321;28;20744;-59
2023/06/22 01:51:32;;;;;;;2.40;1.83;;;;;19.40;96112.00;;;;5053283;28;20192;-59
2023/06/22 01:53:59;;;;;;;2.33;2.00;;;;;19.30;96108.00;;;;5053429;28;20625;-60
2023/06/22 01:56:28;;;;;;;1.10;1.10;;;;;19.40;96119.00;;;;5053295;28;20212;-59
2023/06/22 01:59:04;;;;;;;1.10;1.10;;;;;19.40;96114.00;;;;5053295;28;20184;-59
2023/06/22 02:01:41;;;;;;;2.63;1.70;;;;;19.40;96116.00;;;;5053456;28;20184;-59
2023/06/22 02:04:15;;;;;;;1.17;1.17;;;;;19.40;96115.00;;;;5053607;28;20186;-59
2023/06/22 02:06:46;;;;;;;1.73;1.63;;;;;19.40;96119.00;;;;5053593;28;20582;-60
2023/06/22 02:09:17;;;;;;;1.70;1.60;;;;;19.20;96114.00;;;;5053111;28;20184;-59
2023/06/22 02:11:47;;;;;;;0.97;0.97;;;;;19.30;96103.00;;;;5053721;28;20275;-59
2023/06/22 02:14:15;;;;;;;1.37;1.23;;;;;19.20;96100.00;;;;5052915;28;20714;-60
2023/06/22 02:16:45;;;;;;;0.97;0.97;;;;;19.00;96088.00;;;;5052898;28;20216;-60
2023/06/22 02:19:12;;;;;;;2.13;2.03;;;;;19.10;96082.00;;;;5053002;28;20196;-60
2023/06/22 02:21:39;;;;;;;1.10;1.10;;;;;19.20;96082.00;;;;5051879;28;20249;-60
2023/06/22 02:24:07;;;;;;;1.37;1.33;;;;;19.20;96082.00;;;;5053162;28;20534;-60
2023/06/22 02:26:34;;;;;;;1.23;1.23;;;;;19.20;96072.00;;;;5052766;28;20239;-60
2023/06/22 02:29:02;;;;;;;0.80;0.80;;;;;19.20;96081.00;;;;5053018;28;20207;-60
2023/06/22 02:31:30;;;;;;;1.50;1.40;;;;;19.00;96098.00;;;;5053101;28;20188;-60
2023/06/22 02:33:59;;;;;;;1.00;1.00;;;;;18.80;96083.00;;;;5052983;28;20224;-59
2023/06/22 02:36:30;;;;;;;1.17;1.17;;;;;19.00;96079.00;;;;5052468;28;20218;-59
2023/06/22 02:39:00;;;;;;;2.27;2.07;;;;;19.00;96078.00;;;;5052772;28;20180;-59
2023/06/22 02:41:28;;;;;;;1.07;1.07;;;;;19.00;96071.00;;;;5053000;28;20180;-60
2023/06/22 02:43:55;;;;;;;0.90;0.90;;;;;18.90;96066.00;;;;5052825;28;20193;-59
2023/06/22 02:46:23;;;;;;;1.47;1.37;;;;;18.90;96076.00;;;;5052465;28;20231;-59
2023/06/22 02:48:50;;;;;;;2.37;2.17;;;;;18.90;96074.00;;;;5052980;28;20176;-59
2023/06/22 02:51:19;;;;;;;0.67;0.67;;;;;18.90;96069.00;;;;5053620;28;20192;-59
2023/06/22 02:53:47;;;;;;;1.67;1.47;;;;;18.90;96074.00;;;;5052755;28;20323;-59
2023/06/22 02:56:15;;;;;;;1.30;1.30;;;;;18.90;96082.00;;;;5052867;28;20219;-59
2023/06/22 02:58:43;;;;;;;1.17;1.17;;;;;18.80;96073.00;;;;5053073;28;20586;-58
2023/06/22 03:01:12;;;;;;;1.87;1.77;;;;;18.60;96062.00;;;;5052538;28;20192;-59
2023/06/22 03:03:40;;;;;;;1.40;1.33;;;;;18.70;96070.00;;;;5052528;28;20216;-59
2023/06/22 03:06:13;;;;;;;1.53;1.47;;;;;18.80;96068.00;;;;5052679;28;20220;-59
2023/06/22 03:08:42;;;;;;;1.60;1.50;;;;;18.70;96063.00;;;;5053729;28;20601;-59
2023/06/22 03:11:10;;;;;;;1.90;1.77;;;;;18.60;96053.00;;;;5056189;28;20207;-59
2023/06/22 03:13:37;;;;;;;1.37;1.33;;;;;18.70;96066.00;;;;5056565;28;20216;-59
2023/06/22 03:16:05;;;;;;;1.50;1.40;;;;;18.70;96066.00;;;;5056641;28;20208;-59
2023/06/22 03:18:32;;;;;;;2.70;2.50;;;;;18.60;96063.00;;;;5056554;28;20214;-59
2023/06/22 03:21:02;;;;;;;2.53;1.90;;;;;18.60;96059.00;;;;5056082;28;20241;-59
2023/06/22 03:23:29;;;;;;;1.10;1.10;;;;;18.70;96052.00;;;;5056130;28;20188;-59
2023/06/22 03:25:58;;;;;;;2.00;1.87;;;;;18.60;96049.00;;;;5055874;28;20667;-59
2023/06/22 03:28:25;;;;;;;2.20;1.63;;;;;18.70;96061.00;;;;5056196;28;20200;-58
2023/06/22 03:30:53;;;;;;;1.07;1.03;;;;;18.70;96062.00;;;;5055842;28;20188;-59
2023/06/22 03:33:20;;;;;;;0.80;0.80;;;;;18.60;96059.00;;;;5055942;28;20691;-59
2023/06/22 03:35:47;;;;;;;2.20;1.47;;;;;18.50;96057.00;;;;5055706;28;20196;-59
2023/06/22 03:38:15;;;;;;;1.43;1.33;;;;;18.60;96043.00;;;;5055717;28;20192;-59
2023/06/22 03:40:42;;;;;;;1.73;1.63;;;;;18.60;96048.00;;;;5055837;28;20192;-59
2023/06/22 03:43:11;;;;;;;1.60;1.50;;;;;18.70;96037.00;;;;5055989;28;20192;-60
2023/06/22 03:45:40;;;;;;;1.10;1.10;;;;;18.70;96010.00;;;;5055608;28;20203;-59
2023/06/22 03:48:07;;;;;;;8.40;1.83;;;;;18.80;96037.00;;;;5055339;28;20277;-59
2023/06/22 03:50:34;;;;;;;1.77;1.67;;;;;18.70;96043.00;;;;5055749;28;20196;-59
2023/06/22 03:53:02;;;;;;;1.17;1.17;;;;;18.70;96053.00;;;;5055407;28;20196;-59
2023/06/22 03:55:30;;;;;;;1.90;1.73;;;;;18.70;96051.00;;;;5055682;28;20192;-59
2023/06/22 03:57:57;;;;;;;1.33;1.33;;;;;18.70;96044.00;;;;5055469;28;20216;-59
2023/06/22 04:00:26;;;;;;;1.00;1.00;;;;;18.60;96044.00;;;;5055556;28;20671;-60
2023/06/22 04:02:53;;;;;;;1.30;1.27;;;;;18.70;96032.00;;;;5055715;28;20215;-59
2023/06/22 04:05:21;;;;;;;1.30;1.17;;;;;18.80;96031.00;;;;5055258;28;20196;-60
2023/06/22 04:07:48;;;;;;;1.20;1.20;;;;;18.80;96040.00;;;;5055286;28;20286;-59
2023/06/22 04:10:15;;;;;;;1.77;1.67;;;;;18.60;96039.00;;;;5055136;28;20265;-59
2023/06/22 04:12:43;;;;;;;1.60;1.50;;;;;18.40;96035.00;;;;5055139;28;20189;-59
2023/06/22 04:15:11;;;;;;;1.63;1.53;;;;;18.60;96039.00;;;;5055373;28;20216;-60
2023/06/22 04:17:40;;;;;;;1.20;1.20;;;;;18.90;96032.00;;;;5055511;28;20671;-60
2023/06/22 04:20:09;;;;;;;1.33;1.23;;;;;19.00;96029.00;;;;5054947;28;20207;-60
2023/06/22 04:22:36;;;;;;;8.13;1.90;;;;;19.10;96025.00;;;;5054930;28;20226;-60
2023/06/22 04:25:04;;;;;;;1.40;1.30;;;;;19.00;96027.00;;;;5053913;28;20664;-60
2023/06/22 04:27:32;;;;;;;2.30;2.10;;;;;18.90;96030.00;;;;5055511;28;20705;-60
2023/06/22 04:30:00;;;;;;;1.23;1.20;;;;;19.00;96015.00;;;;5056211;28;20203;-60
2023/06/22 04:32:27;;;;;;;1.53;1.43;;;;;19.20;96014.00;;;;5054955;28;20616;-60
2023/06/22 04:34:56;;;;;;;3.10;1.90;;;;;19.30;96013.00;;;;5054567;28;20216;-61
2023/06/22 04:37:24;;;;;;;1.83;1.73;;;;;19.20;96015.00;;;;5054550;28;20241;-60
2023/06/22 04:39:52;;;;;;;1.30;1.20;;;;;19.20;96005.00;;;;5055181;28;20663;-59
2023/06/22 04:42:20;;;;;;;2.03;1.87;;;;;19.10;96010.00;;;;5054531;28;20194;-60
2023/06/22 04:44:47;;;;;;;2.63;2.43;;;;;19.20;96012.00;;;;5054860;28;20200;-60
2023/06/22 04:47:15;;;;;;;1.80;1.70;;;;;19.30;96008.00;;;;5054603;28;20212;-59
2023/06/22 04:49:43;;;;;;;0.97;0.97;;;;;19.20;96010.00;;;;5054364;28;20192;-59
2023/06/22 04:52:20;;;;;;;2.23;1.97;;;;;19.30;96004.00;;;;5054848;28;20275;-59
2023/06/22 04:54:50;;;;;;;1.97;1.87;;;;;19.50;96010.00;;;;5054982;28;20210;-59
2023/06/22 04:57:17;;;;;;;0.67;0.67;;;;;19.50;96009.00;;;;5054465;28;20212;-59
2023/06/22 04:59:45;;;;;;;1.63;1.53;;;;;19.60;96010.00;;;;5054662;28;20242;-59
2023/06/22 05:02:12;;;;;;;1.30;1.23;;;;;19.80;96011.00;;;;5054660;28;20238;-59
2023/06/22 05:04:40;;;;;;;1.70;1.60;;;;;19.80;96000.00;;;;5053984;28;20188;-59
2023/06/22 05:07:07;;;;;;;1.97;1.87;;;;;19.90;96002.00;;;;5054696;28;20561;-59
2023/06/22 05:09:36;;;;;;;1.07;1.07;;;;;19.90;95993.00;;;;5054274;28;20234;-59
2023/06/22 05:12:04;;;;;;;1.87;1.77;;;;;19.70;95988.00;;;;5053972;28;20192;-59
2023/06/22 05:14:32;;;;;;;1.40;1.37;;;;;19.70;95990.00;;;;5053965;28;20216;-60
2023/06/22 05:17:03;;;;;;;1.50;1.40;;;;;19.90;95987.00;;;;5053788;28;20269;-60
2023/06/22 05:19:33;;;;;;;1.00;1.00;;;;;20.00;95992.00;;;;5053808;28;20184;-60
2023/06/22 05:22:00;;;;;;;1.73;1.40;;;;;20.10;95981.00;;;;5053751;28;20199;-60
2023/06/22 05:24:27;;;;;;;3.73;3.40;;;;;20.10;95980.00;;;;5053940;28;20250;-60
2023/06/22 05:26:56;;;;;;;1.52;1.45;;;;;20.20;95979.00;;;;5053767;28;20216;-60
2023/06/22 05:29:24;;;;;;;1.23;1.20;;;;;20.20;95976.00;;;;5053626;28;20192;-60
2023/06/22 05:31:51;;;;;;;1.63;1.53;;;;;20.10;95984.00;;;;5053048;28;20257;-60
2023/06/22 05:34:18;;;;;;;1.13;1.13;;;;;19.70;95989.00;;;;5053455;28;20223;-60
2023/06/22 05:36:46;;;;;;;2.07;1.97;;;;;20.00;95981.00;;;;5053765;28;20212;-60
2023/06/22 05:39:14;;;;;;;1.40;1.40;;;;;19.90;95985.00;;;;5053443;28;20192;-60
2023/06/22 05:41:43;;;;;;;2.00;1.87;;;;;19.80;95990.00;;;;5054300;28;20196;-59
2023/06/22 05:44:11;;;;;;;2.30;1.98;;;;;20.00;95985.00;;;;5053317;28;20589;-59
2023/06/22 05:46:44;;;;;;;1.15;1.15;;;;;20.20;95989.00;;;;5053191;28;20216;-59
2023/06/22 05:49:12;;;;;;;1.77;1.57;;;;;20.40;95986.00;;;;5053593;28;20191;-59
2023/06/22 05:51:40;;;;;;;1.27;1.27;;;;;20.30;95991.00;;;;5053261;28;20207;-59
2023/06/22 05:54:07;;;;;;;3.03;2.58;;;;;20.50;95989.00;;;;5053179;28;20277;-59
2023/06/22 05:56:35;;;;;;;2.17;2.07;;;;;20.60;95994.00;;;;5053657;28;20718;-59
2023/06/22 05:59:02;;;;;;;1.13;1.13;;;;;20.80;95987.00;;;;5053146;28;20196;-59
2023/06/22 06:01:34;;;;;;;2.13;2.03;;;;;21.00;95977.00;;;;5053065;28;20199;-59
2023/06/22 06:04:02;;;;;;;1.33;1.23;;;;;21.10;95982.00;;;;5053920;28;20183;-59
2023/06/22 06:06:29;;;;;;;1.48;1.38;;;;;21.10;95981.00;;;;5053374;28;20251;-63
2023/06/22 06:08:57;;;;;;;1.65;1.55;;;;;20.90;95979.00;;;;5053035;28;20208;-60
2023/06/22 06:11:24;;;;;;;1.27;1.27;;;;;21.10;95977.00;;;;5053276;28;20196;-60
2023/06/22 06:13:52;;;;;;;1.95;1.85;;;;;21.10;95971.00;;;;5053107;28;20191;-60
2023/06/22 06:16:19;;;;;;;1.65;1.55;;;;;21.20;95976.00;;;;5053514;28;20212;-60
2023/06/22 06:18:50;;;;;;;1.63;1.52;;;;;21.20;95977.00;;;;5053373;28;20279;-59
2023/06/22 06:21:18;;;;;;;2.65;2.47;;;;;21.20;95972.00;;;;5053967;28;20196;-59
2023/06/22 06:23:45;;;;;;;1.13;1.13;;;;;21.30;95970.00;;;;5051551;28;20204;-59
2023/06/22 06:26:13;;;;;;;2.10;2.00;;;;;21.50;95975.00;;;;5052773;28;20238;-59
2023/06/22 06:28:40;;;;;;;2.97;1.30;;;;;21.70;95978.00;;;;5052954;28;20265;-59
2023/06/22 06:31:08;;;;;;;1.50;1.40;;;;;21.60;95979.00;;;;5051484;28;20724;-60
2023/06/22 06:33:36;;;;;;;1.13;1.13;;;;;21.40;95982.00;;;;5053167;28;20196;-60
2023/06/22 06:36:08;;;;;;;1.25;1.25;;;;;21.50;95983.00;;;;5053249;28;20230;-60
2023/06/22 06:38:35;;;;;;;1.25;1.17;;;;;21.80;95986.00;;;;5053145;28;20223;-60
2023/06/22 06:41:03;;;;;;;2.05;1.67;;;;;21.90;95980.00;;;;5051448;28;20200;-60
2023/06/22 06:43:30;;;;;;;1.95;1.85;;;;;22.10;95978.00;;;;5053792;28;20706;-60
2023/06/22 06:45:58;;;;;;;2.75;1.63;;;;;22.30;95965.00;;;;5055214;28;20192;-61
2023/06/22 06:48:25;;;;;;;2.08;1.48;;;;;22.40;95960.00;;;;5056903;28;20193;-60
2023/06/22 06:50:52;;;;;;;1.80;1.65;;;;;22.60;95955.00;;;;5053671;28;20208;-59
2023/06/22 06:53:21;;;;;;;1.50;1.42;;;;;22.80;95951.00;;;;5053005;28;20245;-59
2023/06/22 06:55:49;;;;;;;1.20;1.20;;;;;22.90;95955.00;;;;5052726;28;20313;-60
2023/06/22 06:58:16;;;;;;;1.40;0.98;;;;;23.00;95956.00;;;;5054976;28;20679;-60
2023/06/22 07:00:44;;;;;;;2.22;1.92;;;;;23.20;95957.00;;;;5052823;28;20200;-60
2023/06/22 07:03:12;;;;;;;1.52;1.42;;;;;23.30;95946.00;;;;5054647;28;20709;-60
2023/06/22 07:05:39;;;;;;;2.15;1.40;;;;;23.40;95939.00;;;;5054075;28;20188;-61
2023/06/22 07:08:07;;;;;;;1.48;1.48;;;;;23.30;95942.00;;;;5054096;28;20266;-61
2023/06/22 07:10:35;;;;;;;3.20;1.45;;;;;23.60;95930.00;;;;5054425;28;20196;-61
2023/06/22 07:13:03;;;;;;;1.45;1.38;;;;;23.70;95934.00;;;;5054689;28;20275;-59
2023/06/22 07:15:30;;;;;;;0.80;0.80;;;;;23.70;95930.00;;;;5053944;28;20574;-59
2023/06/22 07:17:58;;;;;;;0.88;0.88;;;;;23.90;95927.00;;;;5054862;28;20227;-61
2023/06/22 07:20:25;;;;;;;2.08;1.45;;;;;24.00;95920.00;;;;5053590;28;20210;-59
2023/06/22 07:22:53;;;;;;;1.20;1.10;;;;;24.20;95921.00;;;;5053115;28;20686;-59
2023/06/22 07:25:21;;;;;;;1.90;1.70;;;;;24.30;95919.00;;;;5053965;28;20196;-60
2023/06/22 07:28:01;;;;;;;1.45;1.35;;;;;24.40;95909.00;;;;5054328;28;20216;-61
2023/06/22 07:30:29;;;;;;;0.60;0.60;;;;;24.50;95905.00;;;;5053560;28;20259;-60
2023/06/22 07:32:57;;;;;;;1.33;1.25;;;;;24.50;95916.00;;;;5054151;28;20203;-60
2023/06/22 07:35:25;;;;;;;1.52;1.17;;;;;24.60;95916.00;;;;5054050;28;20224;-61
2023/06/22 07:37:53;;;;;;;4.18;1.08;;;;;24.70;95920.00;;;;5053950;28;20572;-61
2023/06/22 07:40:20;;;;;;;1.10;1.05;;;;;24.50;95925.00;;;;5054140;28;20655;-60
2023/06/22 07:42:51;;;;;;;1.48;1.38;;;;;24.50;95925.00;;;;5053650;28;20204;-60
2023/06/22 07:45:19;;;;;;;5.72;2.13;;;;;24.70;95916.00;;;;5053654;28;20189;-60
2023/06/22 07:47:46;;;;;;;0.70;0.70;;;;;24.80;95926.00;;;;5055825;22;20232;-55
2023/06/22 07:50:14;;;;;;;3.30;1.85;;;;;25.00;95924.00;;;;5033379;28;20197;-55
2023/06/22 07:52:41;;;;;;;0.93;0.93;;;;;25.10;95925.00;;;;5032557;28;20207;-55
2023/06/22 07:55:09;;;;;;;1.40;1.35;;;;;25.30;95938.00;;;;5032263;28;20280;-56
2023/06/22 07:57:36;;;;;;;0.95;0.95;;;;;25.30;95933.00;;;;5033339;28;20208;-55
2023/06/22 08:00:12;;;;;;;16.27;1.60;;;;;25.40;95943.00;;;;5033423;28;20204;-55
2023/06/22 08:02:40;;;;;;;1.88;1.58;;;;;25.60;95955.00;;;;5033451;28;20625;-55
2023/06/22 08:05:09;;;;;;;0.75;0.75;;;;;25.60;95959.00;;;;5033174;28;20220;-55
2023/06/22 08:07:37;;;;;;;2.25;1.58;;;;;25.50;95955.00;;;;5033116;28;20225;-55
2023/06/22 08:10:05;;;;;;;0.82;0.82;;;;;25.30;95973.00;;;;5033044;28;20201;-55
2023/06/22 08:12:33;;;;;;;1.83;1.67;;;;;25.30;95980.00;;;;5031849;28;20200;-56
2023/06/22 08:15:01;;;;;;;1.02;1.02;;;;;25.20;95988.00;;;;5033208;28;20215;-55
2023/06/22 08:17:30;;;;;;;1.17;1.17;;;;;24.70;95996.00;;;;5032322;28;20224;-55
2023/06/22 08:19:58;;;;;;;1.55;1.45;;;;;24.70;95997.00;;;;5033217;28;20715;-55
2023/06/22 08:22:26;;;;;;;1.30;1.25;;;;;24.20;96006.00;;;;5032705;28;20846;-55
2023/06/22 08:24:53;;;;;;;1.40;1.30;;;;;24.30;95997.00;;;;5014907;28;20390;-55
2023/06/22 08:27:23;;;;;;;0.70;0.70;;;;;24.50;95987.00;;;;5032510;28;20279;-55
2023/06/22 08:29:51;;;;;;;1.48;1.48;;;;;24.40;95973.00;;;;5032669;28;20287;-58
2023/06/22 08:32:19;;;;;;;1.50;1.45;;;;;24.60;95972.00;;;;5032687;28;20193;-55
2023/06/22 08:34:47;;;;;;;1.33;1.30;;;;;24.70;95970.00;;;;5032996;28;20224;-55
2023/06/22 08:37:15;;;;;;;1.40;1.35;;;;;25.00;95980.00;;;;5032169;28;20227;-55
2023/06/22 08:39:42;;;;;;;3.47;2.05;;;;;25.20;95996.00;;;;5032909;28;20204;-55
2023/06/22 08:42:10;;;;;;;4.63;1.38;;;;;25.10;95993.00;;;;5032089;28;20200;-55
2023/06/22 08:44:37;;;;;;;3.10;2.17;;;;;25.10;95990.00;;;;5032817;28;20280;-55
2023/06/22 08:47:05;;;;;;;1.65;1.55;;;;;25.00;95982.00;;;;5031905;28;20738;-55
2023/06/22 08:49:33;;;;;;;1.08;1.08;;;;;25.00;95965.00;;;;5032744;28;20212;-55
2023/06/22 08:52:01;;;;;;;0.77;0.73;;;;;25.30;95959.00;;;;5032042;28;20688;-55
2023/06/22 08:54:29;;;;;;;1.85;1.55;;;;;25.50;95961.00;;;;5032677;28;20197;-55
2023/06/22 08:56:56;;;;;;;1.05;1.02;;;;;25.30;95961.00;;;;5032065;28;20236;-55
2023/06/22 08:59:24;;;;;;;1.48;1.40;;;;;25.20;95958.00;;;;5032063;28;20207;-55
2023/06/22 09:01:51;;;;;;;1.27;1.02;;;;;25.10;95950.00;;;;5014299;28;20691;-55
2023/06/22 09:04:21;;;;;;;1.67;1.58;;;;;25.10;95938.00;;;;5032038;28;20197;-55
2023/06/22 09:06:49;;;;;;;1.63;1.52;;;;;25.10;95930.00;;;;5030728;28;20295;-55
2023/06/22 09:09:19;;;;;;;1.40;1.33;;;;;25.10;95916.00;;;;5031929;28;20196;-55
2023/06/22 09:11:46;;;;;;;1.23;1.20;;;;;25.30;95929.00;;;;5032097;28;20557;-55
2023/06/22 09:14:14;;;;;;;1.48;1.38;;;;;25.50;95933.00;;;;5031819;28;20615;-54
2023/06/22 09:16:42;;;;;;;1.70;1.63;;;;;26.10;95929.00;;;;5014007;28;20240;-55
2023/06/22 09:19:10;;;;;;;1.85;1.75;;;;;26.30;95922.00;;;;5031813;28;20196;-55
2023/06/22 09:21:38;;;;;;;2.42;1.65;;;;;26.50;95918.00;;;;5031636;28;20275;-55
2023/06/22 09:24:06;;;;;;;1.20;1.20;;;;;26.80;95926.00;;;;5031629;28;20197;-55
2023/06/22 09:26:35;;;;;;;1.45;1.35;;;;;27.00;95921.00;;;;5011924;28;20217;-55
2023/06/22 09:29:02;;;;;;;2.65;1.27;;;;;27.00;95913.00;;;;5012208;28;20225;-55
2023/06/22 09:31:29;;;;;;;2.50;1.42;;;;;27.30;95908.00;;;;5012436;28;20534;-55
2023/06/22 09:33:57;;;;;;;2.30;1.58;;;;;27.50;95902.00;;;;5007323;28;20197;-55
2023/06/22 09:36:25;;;;;;;1.00;1.00;;;;;27.70;95896.00;;;;5011762;28;20217;-55
2023/06/22 09:38:55;;;;;;;0.90;0.90;;;;;28.10;95895.00;;;;5011008;28;20194;-55
2023/06/22 09:41:23;;;;;;;1.77;1.65;;;;;28.20;95896.00;;;;5011841;28;20186;-55
2023/06/22 09:43:52;;;;;;;4.18;2.13;;;;;28.20;95881.00;;;;5011630;28;20200;-55
2023/06/22 09:46:21;;;;;;;1.02;1.02;;;;;28.20;95882.00;;;;5011043;28;20200;-55
2023/06/22 09:48:49;;;;;;;1.35;1.17;;;;;28.40;95881.00;;;;5011587;28;20236;-55
2023/06/22 09:51:16;;;;;;;2.72;1.27;;;;;28.60;95882.00;;;;5011131;28;20204;-55
2023/06/22 09:53:43;;;;;;;1.65;1.55;;;;;28.10;95878.00;;;;5011353;28;20204;-56
2023/06/22 09:56:14;;;;;;;1.40;1.35;;;;;28.20;95862.00;;;;5011331;28;20688;-55
2023/06/22 09:58:42;;;;;;;3.65;1.83;;;;;28.70;95866.00;;;;5011373;28;20194;-55
2023/06/22 10:01:11;;;;;;;1.70;1.60;;;;;28.60;95869.00;;;;5011433;28;20240;-55
2023/06/22 10:03:39;;;;;;;1.63;1.52;;;;;28.70;95871.00;;;;5011243;28;20198;-56
2023/06/22 10:06:06;;;;;;;1.95;1.30;;;;;28.50;95865.00;;;;5011213;28;20669;-56
2023/06/22 10:08:34;;;;;;;2.30;2.20;;;;;28.70;95865.00;;;;5011152;28;20711;-55
2023/06/22 10:11:01;;;;;;;1.20;1.20;;;;;28.30;95853.00;;;;5010786;28;20204;-55
2023/06/22 10:13:28;;;;;;;1.63;1.52;;;;;28.50;95843.00;;;;5011529;28;20193;-56
2023/06/22 10:15:56;;;;;;;1.33;1.33;;;;;29.10;95854.00;;;;5011084;28;20270;-55
2023/06/22 10:18:25;;;;;;;0.80;0.80;;;;;29.00;95812.00;;;;5010542;28;20272;-56
2023/06/22 10:20:52;;;;;;;0.80;0.80;;;;;29.30;95859.00;;;;5011495;28;20564;-55
2023/06/22 10:23:20;;;;;;;1.92;1.83;;;;;29.50;95852.00;;;;5011023;28;20197;-55
2023/06/22 10:25:48;;;;;;;2.75;1.70;;;;;30.00;95849.00;;;;5012919;28;20276;-56
2023/06/22 10:28:16;;;;;;;0.73;0.73;;;;;29.90;95854.00;;;;5030903;28;20224;-55
2023/06/22 10:30:44;;;;;;;1.85;1.75;;;;;29.80;95858.00;;;;5030375;28;20313;-55
2023/06/22 10:33:13;;;;;;;1.23;1.23;;;;;29.60;95866.00;;;;5031009;28;20205;-55
2023/06/22 10:35:41;;;;;;;2.33;1.33;;;;;29.90;95860.00;;;;5030531;28;20332;-56
2023/06/22 10:38:09;;;;;;;0.95;0.95;;;;;30.20;95856.00;;;;5030790;28;20270;-56
2023/06/22 10:40:36;;;;;;;1.60;1.50;;;;;30.20;95856.00;;;;5030503;28;20568;-54
2023/06/22 10:43:04;;;;;;;0.98;0.98;;;;;30.00;95858.00;;;;5030908;28;20683;-54
2023/06/22 10:45:32;;;;;;;12.75;1.40;;;;;30.10;95856.00;;;;4992134;28;20297;-54
2023/06/22 10:48:00;;;;;;;1.42;1.33;;;;;30.40;95857.00;;;;5010973;28;20589;-56
2023/06/22 10:50:28;;;;;;;1.10;1.10;;;;;30.30;95858.00;;;;5010431;28;20212;-54
2023/06/22 10:52:57;;;;;;;2.20;2.03;;;;;30.30;95865.00;;;;5010653;28;20212;-54
2023/06/22 10:55:24;;;;;;;1.27;1.27;;;;;30.30;95855.00;;;;5010943;28;20604;-54
2023/06/22 10:57:52;;;;;;;2.67;1.48;;;;;30.40;95852.00;;;;5011077;28;20229;-54
2023/06/22 11:00:21;;;;;;;2.55;2.35;;;;;30.10;95855.00;;;;5010598;28;20208;-54
2023/06/22 11:02:48;;;;;;;1.40;1.30;;;;;30.20;95859.00;;;;5010453;28;20201;-54
2023/06/22 11:05:15;;;;;;;1.40;1.30;;;;;30.20;95859.00;;;;5011860;28;20208;-54
2023/06/22 11:07:44;;;;;;;2.28;1.48;;;;;30.10;95854.00;;;;5029938;28;20244;-54
2023/06/22 11:10:13;;;;;;;1.67;1.58;;;;;29.70;95857.00;;;;5030270;28;20279;-54
2023/06/22 11:12:40;;;;;;;1.73;1.63;;;;;29.80;95865.00;;;;5030632;28;20200;-54
2023/06/22 11:15:09;;;;;;;0.98;0.95;;;;;29.70;95855.00;;;;5030259;28;20201;-54
2023/06/22 11:17:36;;;;;;;0.93;0.93;;;;;29.80;95846.00;;;;5030141;28;20225;-54
2023/06/22 11:20:10;;;;;;;2.53;1.40;;;;;30.00;95844.00;;;;5022855;28;20648;-53
2023/06/22 11:22:39;;;;;;;1.35;1.33;;;;;30.20;95836.00;;;;5006316;28;20190;-54
2023/06/22 11:25:07;;;;;;;1.33;1.25;;;;;30.40;95848.00;;;;5010763;28;20293;-56
2023/06/22 11:27:36;;;;;;;1.30;1.20;;;;;30.20;95844.00;;;;5023176;28;20626;-54
2023/06/22 11:30:04;;;;;;;1.27;1.25;;;;;30.20;95848.00;;;;5031585;28;20216;-54
2023/06/22 11:32:31;;;;;;;4.07;1.65;;;;;30.00;95844.00;;;;5033906;28;20201;-54
2023/06/22 11:34:59;;;;;;;1.23;1.23;;;;;29.80;95836.00;;;;5033788;28;20195;-54
2023/06/22 11:37:26;;;;;;;1.85;1.60;;;;;29.70;95835.00;;;;5033619;28;20224;-54
2023/06/22 11:39:54;;;;;;;2.05;1.90;;;;;29.50;95847.00;;;;5033545;28;20192;-54
2023/06/22 11:42:23;;;;;;;5.13;2.63;;;;;29.30;95848.00;;;;5033857;28;20259;-54
2023/06/22 11:44:52;;;;;;;1.45;1.42;;;;;29.40;95848.00;;;;5033240;28;20197;-54
2023/06/22 11:47:20;;;;;;;2.15;1.45;;;;;29.20;95862.00;;;;5033719;28;20252;-54
2023/06/22 11:49:47;;;;;;;1.58;1.33;;;;;29.20;95868.00;;;;5033784;28;20546;-54
2023/06/22 11:52:15;;;;;;;1.77;1.67;;;;;28.80;95876.00;;;;5033336;28;20201;-54
2023/06/22 11:54:42;;;;;;;3.08;2.08;;;;;29.00;95878.00;;;;5033287;28;20640;-54
2023/06/22 11:57:10;;;;;;;5.80;2.17;;;;;29.00;95884.00;;;;5015345;28;20224;-54
2023/06/22 11:59:37;;;;;;;3.08;2.75;;;;;29.10;95887.00;;;;5033180;28;20229;-55
2023/06/22 12:02:07;;;;;;;5.63;1.98;;;;;29.00;95888.00;;;;5033201;28;20664;-55
2023/06/22 12:04:34;;;;;;;1.45;1.40;;;;;29.30;95881.00;;;;5033130;28;20274;-54
2023/06/22 12:07:02;;;;;;;1.60;1.50;;;;;29.30;95876.00;;;;5033195;28;20220;-55
2023/06/22 12:09:29;;;;;;;1.27;1.17;;;;;29.60;95875.00;;;;5033461;28;20202;-55
2023/06/22 12:11:57;;;;;;;1.33;1.23;;;;;29.80;95863.00;;;;5032717;28;20196;-54
2023/06/22 12:14:24;;;;;;;1.17;1.17;;;;;30.10;95858.00;;;;5033477;28;20212;-54
2023/06/22 12:16:52;;;;;;;2.05;1.40;;;;;30.20;95863.00;;;;5014545;28;20251;-55
2023/06/22 12:19:21;;;;;;;3.03;2.10;;;;;30.30;95876.00;;;;5033212;28;20203;-55
2023/06/22 12:21:48;;;;;;;1.75;1.65;;;;;30.40;95876.00;;;;5032752;28;20225;-54
2023/06/22 12:24:16;;;;;;;12.75;2.50;;;;;30.40;95882.00;;;;5032999;28;20510;-55